createdAt,value
2019-04-12T00:00:23.986Z,6.80
2019-04-12T00:01:23.976Z,6.30
2019-04-12T00:02:23.964Z,5.80
2019-04-12T00:03:23.955Z,5.40
2019-04-12T00:04:23.944Z,7.00
2019-04-12T00:05:23.934Z,5.20
2019-04-12T00:06:23.925Z,6.00
2019-04-12T00:07:23.915Z,5.90
2019-04-12T00:08:23.903Z,5.60
2019-04-12T00:09:23.893Z,6.20
2019-04-12T00:10:23.884Z,4.40
2019-04-12T00:11:23.874Z,7.00
2019-04-12T00:12:23.861Z,7.10
2019-04-12T00:13:23.851Z,6.20
2019-04-12T00:14:23.843Z,6.20
2019-04-12T00:15:23.834Z,6.10
2019-04-12T00:16:23.822Z,6.20
2019-04-12T00:17:23.807Z,7.60
2019-04-12T00:18:23.801Z,6.00
2019-04-12T00:19:23.791Z,6.20
2019-04-12T00:20:23.780Z,6.30
2019-04-12T00:21:23.768Z,6.30
2019-04-12T00:22:23.754Z,5.10
2019-04-12T00:23:23.751Z,5.00
2019-04-12T00:24:34.134Z,6.50
2019-04-12T00:25:23.732Z,5.50
2019-04-12T00:26:23.716Z,6.40
2019-04-12T00:27:23.708Z,5.70
2019-04-12T00:28:23.698Z,7.60
2019-04-12T00:29:23.689Z,6.10
2019-04-12T00:30:23.684Z,6.80
2019-04-12T00:31:23.681Z,6.70
2019-04-12T00:32:23.658Z,6.50
2019-04-12T00:33:23.646Z,5.50
2019-04-12T00:34:24.104Z,6.40
2019-04-12T00:35:23.623Z,6.00
2019-04-12T00:36:23.616Z,8.00
2019-04-12T00:37:24.344Z,6.40
2019-04-12T00:38:26.460Z,5.60
2019-04-12T00:39:23.583Z,6.30
2019-04-12T00:40:23.572Z,6.70
2019-04-12T00:41:23.558Z,5.60
2019-04-12T00:42:23.551Z,5.50
2019-04-12T00:43:23.540Z,7.60
2019-04-12T00:44:23.530Z,6.00
2019-04-12T00:45:23.518Z,8.00
2019-04-12T00:46:23.506Z,5.70
2019-04-12T00:47:23.498Z,7.80
2019-04-12T00:48:23.487Z,6.40
2019-04-12T00:49:23.477Z,5.20
2019-04-12T00:50:23.466Z,6.60
2019-04-12T00:51:23.477Z,7.70
2019-04-12T00:52:23.442Z,6.10
2019-04-12T00:53:23.436Z,6.70
2019-04-12T00:54:23.424Z,8.50
2019-04-12T00:55:23.414Z,6.80
2019-04-12T00:56:23.411Z,5.20
2019-04-12T00:57:23.389Z,5.80
2019-04-12T00:58:23.379Z,5.60
2019-04-12T00:59:23.368Z,6.90
2019-04-12T01:00:23.364Z,6.20
2019-04-12T01:01:23.346Z,6.80
2019-04-12T01:02:23.337Z,7.90
2019-04-12T01:03:23.331Z,6.50
2019-04-12T01:04:23.315Z,5.60
2019-04-12T01:05:23.305Z,6.10
2019-04-12T01:06:23.297Z,5.80
2019-04-12T01:07:23.286Z,5.80
2019-04-12T01:08:23.276Z,6.10
2019-04-12T01:09:23.266Z,6.30
2019-04-12T01:10:23.318Z,5.40
2019-04-12T01:11:25.063Z,5.00
2019-04-12T01:12:25.835Z,6.30
2019-04-12T01:13:26.811Z,6.90
2019-04-12T01:14:27.244Z,5.00
2019-04-12T01:15:23.207Z,5.60
2019-04-12T01:16:23.191Z,6.80
2019-04-12T01:17:23.178Z,5.50
2019-04-12T01:18:23.172Z,6.90
2019-04-12T01:19:23.159Z,4.30
2019-04-12T01:20:23.149Z,6.10
2019-04-12T01:21:23.140Z,7.00
2019-04-12T01:22:23.128Z,6.30
2019-04-12T01:23:23.118Z,5.70
2019-04-12T01:24:23.106Z,7.00
2019-04-12T01:25:23.096Z,6.70
2019-04-12T01:26:23.086Z,4.50
2019-04-12T01:27:23.070Z,5.30
2019-04-12T01:28:23.064Z,8.60
2019-04-12T01:29:23.052Z,6.30
2019-04-12T01:30:23.042Z,5.60
2019-04-12T01:31:23.035Z,5.50
2019-04-12T01:32:23.020Z,6.10
2019-04-12T01:33:23.011Z,6.70
2019-04-12T01:34:23.009Z,9.00
2019-04-12T01:35:22.989Z,6.10
2019-04-12T01:36:22.979Z,6.80
2019-04-12T01:37:22.962Z,5.60
2019-04-12T01:38:22.958Z,6.50
2019-04-12T01:39:22.945Z,5.90
2019-04-12T01:40:22.936Z,5.20
2019-04-12T01:41:22.920Z,5.60
2019-04-12T01:42:22.910Z,6.10
2019-04-12T01:43:22.903Z,5.30
2019-04-12T01:44:22.892Z,5.20
2019-04-12T01:45:22.885Z,6.20
2019-04-12T01:46:22.867Z,6.00
2019-04-12T01:47:22.856Z,5.50
2019-04-12T01:48:22.849Z,7.60
2019-04-12T01:49:22.836Z,5.00
2019-04-12T01:50:23.001Z,7.00
2019-04-12T01:51:22.817Z,5.90
2019-04-12T01:52:22.802Z,6.20
2019-04-12T01:53:22.793Z,4.80
2019-04-12T01:54:22.783Z,5.60
2019-04-12T01:55:22.772Z,6.20
2019-04-12T01:56:22.763Z,6.60
2019-04-12T01:57:22.749Z,6.30
2019-04-12T01:58:22.744Z,7.10
2019-04-12T01:59:22.729Z,8.50
2019-04-12T02:00:22.719Z,5.50
2019-04-12T02:01:22.707Z,6.60
2019-04-12T02:02:22.693Z,5.80
2019-04-12T02:03:22.682Z,6.20
2019-04-12T02:04:22.676Z,4.80
2019-04-12T02:05:22.664Z,6.60
2019-04-12T02:06:22.653Z,5.90
2019-04-12T02:07:22.640Z,5.30
2019-04-12T02:08:22.632Z,5.20
2019-04-12T02:09:22.757Z,6.20
2019-04-12T02:10:22.610Z,6.30
2019-04-12T02:11:22.598Z,7.90
2019-04-12T02:12:22.586Z,5.30
2019-04-12T02:13:22.575Z,6.60
2019-04-12T02:14:22.565Z,7.20
2019-04-12T02:15:22.552Z,8.40
2019-04-12T02:16:22.541Z,5.30
2019-04-12T02:17:22.529Z,6.30
2019-04-12T02:18:22.521Z,6.50
2019-04-12T02:19:22.511Z,6.80
2019-04-12T02:20:22.502Z,5.80
2019-04-12T02:21:22.485Z,6.50
2019-04-12T02:22:22.477Z,5.40
2019-04-12T02:23:22.468Z,7.90
2019-04-12T02:24:22.459Z,4.80
2019-04-12T02:25:27.163Z,6.60
2019-04-12T02:26:22.436Z,5.00
2019-04-12T02:27:22.420Z,5.50
2019-04-12T02:28:22.418Z,7.00
2019-04-12T02:29:22.402Z,4.50
2019-04-12T02:30:22.396Z,6.30
2019-04-12T02:31:22.378Z,5.50
2019-04-12T02:32:22.369Z,7.50
2019-04-12T02:33:22.355Z,6.60
2019-04-12T02:34:22.348Z,5.60
2019-04-12T02:35:22.337Z,7.10
2019-04-12T02:36:22.326Z,6.00
2019-04-12T02:37:22.312Z,5.70
2019-04-12T02:38:22.310Z,5.80
2019-04-12T02:39:22.296Z,6.90
2019-04-12T02:40:22.281Z,5.90
2019-04-12T02:41:22.276Z,5.80
2019-04-12T02:42:22.259Z,5.60
2019-04-12T02:43:22.253Z,5.00
2019-04-12T02:44:22.239Z,6.30
2019-04-12T02:45:22.225Z,6.00
2019-04-12T02:46:22.229Z,6.10
2019-04-12T02:47:22.201Z,5.50
2019-04-12T02:48:22.193Z,7.70
2019-04-12T02:49:22.188Z,5.40
2019-04-12T02:50:22.752Z,5.40
2019-04-12T02:51:22.178Z,6.90
2019-04-12T02:52:22.148Z,5.20
2019-04-12T02:53:22.138Z,5.40
2019-04-12T02:54:25.157Z,6.10
2019-04-12T02:55:36.480Z,6.00
2019-04-12T02:56:22.103Z,5.90
2019-04-12T02:57:22.090Z,5.40
2019-04-12T02:58:22.085Z,5.90
2019-04-12T02:59:22.075Z,6.00
2019-04-12T03:00:22.066Z,6.60
2019-04-12T03:01:22.046Z,6.20
2019-04-12T03:02:22.035Z,6.00
2019-04-12T03:03:22.030Z,5.40
2019-04-12T03:04:22.014Z,7.00
2019-04-12T03:05:22.005Z,6.90
2019-04-12T03:06:21.992Z,7.10
2019-04-12T03:07:21.978Z,6.10
2019-04-12T03:08:21.970Z,7.30
2019-04-12T03:09:21.965Z,8.90
2019-04-12T03:10:21.950Z,6.20
2019-04-12T03:11:21.943Z,5.80
2019-04-12T03:12:21.927Z,5.20
2019-04-12T03:13:21.912Z,6.20
2019-04-12T03:14:21.902Z,5.90
2019-04-12T03:15:21.890Z,5.80
2019-04-12T03:16:21.881Z,6.60
2019-04-12T03:17:21.868Z,8.60
2019-04-12T03:18:21.860Z,5.80
2019-04-12T03:19:21.842Z,7.10
2019-04-12T03:20:21.832Z,6.20
2019-04-12T03:21:21.826Z,5.80
2019-04-12T03:22:21.811Z,5.30
2019-04-12T03:23:21.814Z,4.30
2019-04-12T03:24:21.789Z,6.10
2019-04-12T03:25:21.777Z,5.90
2019-04-12T03:26:21.764Z,5.70
2019-04-12T03:27:21.760Z,6.50
2019-04-12T03:28:21.743Z,5.90
2019-04-12T03:29:21.732Z,6.20
2019-04-12T03:30:21.717Z,5.50
2019-04-12T03:31:21.705Z,7.50
2019-04-12T03:32:21.693Z,5.20
2019-04-12T03:33:21.686Z,5.50
2019-04-12T03:34:21.687Z,5.00
2019-04-12T03:35:21.664Z,6.50
2019-04-12T03:36:21.650Z,5.40
2019-04-12T03:37:21.640Z,6.20
2019-04-12T03:38:21.630Z,4.70
2019-04-12T03:39:21.619Z,6.20
2019-04-12T03:40:21.603Z,5.80
2019-04-12T03:41:21.593Z,5.30
2019-04-12T03:42:21.578Z,9.30
2019-04-12T03:43:21.574Z,6.30
2019-04-12T03:44:21.573Z,5.90
2019-04-12T03:45:21.554Z,5.70
2019-04-12T03:46:21.539Z,5.70
2019-04-12T03:47:21.531Z,4.90
2019-04-12T03:48:21.514Z,6.30
2019-04-12T03:49:21.501Z,5.70
2019-04-12T03:50:21.492Z,6.00
2019-04-12T03:51:21.488Z,5.60
2019-04-12T03:52:21.469Z,5.00
2019-04-12T03:53:21.461Z,6.00
2019-04-12T03:54:21.445Z,5.00
2019-04-12T03:55:21.432Z,5.20
2019-04-12T03:56:21.426Z,4.90
2019-04-12T03:57:21.412Z,6.30
2019-04-12T03:58:21.407Z,5.70
2019-04-12T03:59:21.389Z,5.60
2019-04-12T04:00:24.776Z,5.70
2019-04-12T04:01:21.425Z,6.80
2019-04-12T04:02:21.352Z,6.70
2019-04-12T04:03:21.342Z,4.80
2019-04-12T04:04:21.336Z,5.10
2019-04-12T04:05:21.320Z,6.20
2019-04-12T04:06:21.306Z,6.10
2019-04-12T04:07:21.295Z,5.40
2019-04-12T04:08:21.284Z,5.00
2019-04-12T04:09:21.276Z,4.90
2019-04-12T04:10:21.260Z,6.40
2019-04-12T04:11:21.247Z,4.70
2019-04-12T04:12:21.246Z,6.80
2019-04-12T04:13:21.256Z,5.10
2019-04-12T04:14:21.253Z,5.20
2019-04-12T04:15:21.300Z,5.80
2019-04-12T04:16:21.194Z,5.50
2019-04-12T04:17:21.196Z,5.00
2019-04-12T04:18:21.194Z,5.50
2019-04-12T04:19:21.160Z,6.20
2019-04-12T04:20:21.147Z,6.10
2019-04-12T04:21:21.145Z,5.60
2019-04-12T04:22:21.133Z,5.40
2019-04-12T04:23:21.114Z,4.60
2019-04-12T04:24:21.104Z,5.10
2019-04-12T04:25:21.098Z,5.90
2019-04-12T04:26:23.495Z,4.60
2019-04-12T04:27:21.068Z,4.30
2019-04-12T04:28:21.059Z,7.30
2019-04-12T04:29:21.045Z,4.70
2019-04-12T04:30:21.037Z,5.60
2019-04-12T04:31:21.023Z,5.20
2019-04-12T04:32:21.010Z,5.30
2019-04-12T04:33:20.998Z,4.90
2019-04-12T04:34:20.987Z,5.80
2019-04-12T04:35:20.986Z,6.00
2019-04-12T04:36:20.984Z,5.40
2019-04-12T04:37:20.955Z,4.40
2019-04-12T04:38:20.959Z,5.50
2019-04-12T04:39:20.931Z,5.70
2019-04-12T04:40:20.920Z,5.30
2019-04-12T04:41:20.908Z,5.40
2019-04-12T04:42:20.899Z,5.10
2019-04-12T04:43:20.888Z,7.80
2019-04-12T04:44:20.874Z,4.80
2019-04-12T04:45:20.868Z,5.40
2019-04-12T04:46:20.856Z,4.70
2019-04-12T04:47:20.844Z,4.60
2019-04-12T04:48:20.830Z,4.50
2019-04-12T04:49:20.816Z,6.70
2019-04-12T04:50:20.809Z,4.20
2019-04-12T04:51:20.790Z,4.50
2019-04-12T04:52:20.787Z,5.40
2019-04-12T04:53:20.774Z,5.10
2019-04-12T04:54:20.760Z,4.90
2019-04-12T04:55:20.747Z,5.00
2019-04-12T04:56:20.738Z,5.40
2019-04-12T04:58:20.712Z,4.80
2019-04-12T04:59:20.695Z,5.00
2019-04-12T05:00:20.689Z,6.20
2019-04-12T05:01:20.676Z,4.10
2019-04-12T05:02:20.661Z,5.50
2019-04-12T05:03:20.655Z,4.80
2019-04-12T05:04:20.641Z,5.70
2019-04-12T05:05:20.629Z,5.40
2019-04-12T05:06:20.618Z,5.20
2019-04-12T05:07:20.608Z,5.20
2019-04-12T05:08:20.596Z,5.80
2019-04-12T05:09:20.583Z,4.60
2019-04-12T05:10:20.576Z,5.00
2019-04-12T05:11:20.561Z,6.90
2019-04-12T05:12:20.545Z,5.50
2019-04-12T05:13:20.537Z,6.50
2019-04-12T05:14:20.521Z,5.60
2019-04-12T05:15:20.510Z,4.80
2019-04-12T05:16:20.506Z,5.70
2019-04-12T05:17:20.489Z,5.20
2019-04-12T05:18:20.482Z,5.80
2019-04-12T05:19:20.463Z,4.90
2019-04-12T05:20:20.456Z,5.80
2019-04-12T05:21:20.440Z,7.10
2019-04-12T05:22:20.428Z,5.20
2019-04-12T05:23:20.423Z,4.60
2019-04-12T05:24:20.409Z,5.30
2019-04-12T05:25:20.395Z,5.90
2019-04-12T05:26:20.382Z,5.50
2019-04-12T05:27:20.370Z,5.30
2019-04-12T05:28:22.927Z,4.50
2019-04-12T05:29:20.349Z,4.90
2019-04-12T05:30:20.339Z,5.20
2019-04-12T05:31:20.329Z,5.60
2019-04-12T05:32:20.313Z,5.00
2019-04-12T05:33:20.303Z,5.10
2019-04-12T05:34:20.300Z,5.90
2019-04-12T05:35:20.283Z,5.10
2019-04-12T05:36:20.274Z,5.70
2019-04-12T05:37:20.257Z,4.80
2019-04-12T05:38:20.247Z,4.80
2019-04-12T05:39:20.237Z,6.50
2019-04-12T05:40:20.225Z,5.70
2019-04-12T05:41:20.213Z,6.10
2019-04-12T05:42:20.200Z,5.50
2019-04-12T05:43:20.187Z,5.70
2019-04-12T05:44:20.179Z,5.00
2019-04-12T05:45:20.166Z,4.70
2019-04-12T05:46:20.159Z,4.50
2019-04-12T05:47:20.144Z,5.20
2019-04-12T05:48:20.147Z,5.90
2019-04-12T05:49:20.119Z,6.10
2019-04-12T05:50:20.113Z,6.60
2019-04-12T05:51:22.968Z,6.10
2019-04-12T05:52:20.738Z,4.70
2019-04-12T05:53:20.076Z,5.00
2019-04-12T05:54:20.066Z,4.70
2019-04-12T05:55:20.054Z,5.30
2019-04-12T05:56:20.047Z,4.80
2019-04-12T05:57:20.030Z,6.40
2019-04-12T05:58:20.022Z,5.60
2019-04-12T05:59:20.013Z,4.40
2019-04-12T06:00:20.009Z,4.50
2019-04-12T06:01:19.989Z,4.80
2019-04-12T06:02:19.979Z,6.30
2019-04-12T06:03:19.970Z,6.10
2019-04-12T06:04:19.956Z,6.80
2019-04-12T06:05:19.944Z,8.00
2019-04-12T06:06:19.931Z,6.20
2019-04-12T06:07:19.920Z,5.10
2019-04-12T06:08:19.911Z,4.00
2019-04-12T06:09:19.899Z,5.30
2019-04-12T06:10:19.888Z,5.70
2019-04-12T06:11:19.881Z,7.60
2019-04-12T06:12:19.867Z,5.50
2019-04-12T06:13:19.856Z,6.50
2019-04-12T06:14:19.845Z,6.90
2019-04-12T06:15:19.838Z,7.60
2019-04-12T06:16:19.822Z,4.90
2019-04-12T06:17:19.811Z,6.50
2019-04-12T06:18:19.947Z,5.90
2019-04-12T06:19:19.790Z,5.40
2019-04-12T06:20:19.780Z,6.30
2019-04-12T06:21:19.775Z,5.10
2019-04-12T06:22:19.757Z,5.00
2019-04-12T06:23:19.748Z,4.50
2019-04-12T06:24:19.744Z,4.70
2019-04-12T06:25:19.726Z,7.80
2019-04-12T06:26:19.714Z,6.10
2019-04-12T06:27:19.701Z,6.70
2019-04-12T06:28:19.695Z,5.20
2019-04-12T06:29:19.681Z,5.90
2019-04-12T06:30:19.667Z,6.50
2019-04-12T06:31:19.660Z,4.90
2019-04-12T06:32:19.645Z,8.00
2019-04-12T06:33:19.638Z,5.10
2019-04-12T06:34:19.629Z,5.80
2019-04-12T06:35:19.615Z,5.50
2019-04-12T06:36:19.602Z,5.40
2019-04-12T06:37:19.594Z,5.50
2019-04-12T06:38:19.585Z,5.80
2019-04-12T06:39:19.570Z,4.90
2019-04-12T06:40:19.562Z,6.30
2019-04-12T06:41:19.548Z,5.50
2019-04-12T06:42:19.537Z,4.80
2019-04-12T06:43:19.530Z,6.80
2019-04-12T06:44:19.520Z,5.60
2019-04-12T06:45:19.510Z,4.70
2019-04-12T06:46:19.500Z,5.20
2019-04-12T06:47:19.484Z,6.90
2019-04-12T06:48:19.482Z,5.00
2019-04-12T06:49:19.467Z,6.40
2019-04-12T06:50:19.454Z,7.00
2019-04-12T06:51:19.447Z,6.20
2019-04-12T06:52:19.436Z,5.50
2019-04-12T06:53:19.423Z,5.00
2019-04-12T06:54:19.413Z,5.00
2019-04-12T06:55:19.407Z,6.20
2019-04-12T06:56:19.396Z,5.00
2019-04-12T06:57:23.256Z,7.10
2019-04-12T06:58:19.371Z,6.10
2019-04-12T06:59:19.358Z,6.70
2019-04-12T07:00:19.352Z,6.10
2019-04-12T07:01:19.338Z,5.80
2019-04-12T07:02:19.330Z,6.10
2019-04-12T07:03:19.318Z,7.00
2019-04-12T07:04:19.305Z,5.10
2019-04-12T07:05:19.299Z,7.70
2019-04-12T07:06:19.287Z,4.90
2019-04-12T07:07:19.273Z,4.80
2019-04-12T07:08:19.267Z,5.20
2019-04-12T07:09:19.258Z,5.00
2019-04-12T07:10:19.243Z,6.80
2019-04-12T07:11:19.236Z,6.20
2019-04-12T07:12:19.223Z,5.00
2019-04-12T07:13:19.216Z,5.10
2019-04-12T07:14:19.205Z,5.30
2019-04-12T07:15:19.194Z,5.80
2019-04-12T07:16:19.190Z,6.10
2019-04-12T07:17:19.176Z,6.00
2019-04-12T07:18:19.162Z,5.10
2019-04-12T07:19:19.153Z,6.10
2019-04-12T07:20:19.146Z,5.00
2019-04-12T07:21:19.133Z,4.40
2019-04-12T07:22:19.120Z,5.10
2019-04-12T07:23:19.113Z,5.60
2019-04-12T07:24:19.102Z,6.30
2019-04-12T07:25:19.091Z,5.80
2019-04-12T07:26:19.082Z,6.40
2019-04-12T07:27:19.069Z,5.10
2019-04-12T07:28:19.064Z,4.70
2019-04-12T07:29:19.048Z,6.80
2019-04-12T07:30:19.044Z,5.50
2019-04-12T07:31:19.031Z,5.30
2019-04-12T07:32:19.021Z,4.70
2019-04-12T07:33:19.012Z,4.90
2019-04-12T07:34:19.008Z,5.20
2019-04-12T07:35:18.994Z,6.40
2019-04-12T07:36:18.981Z,5.50
2019-04-12T07:37:18.968Z,7.80
2019-04-12T07:38:18.970Z,6.20
2019-04-12T07:39:18.947Z,5.80
2019-04-12T07:40:18.943Z,5.60
2019-04-12T07:41:18.935Z,6.90
2019-04-12T07:42:18.923Z,5.80
2019-04-12T07:43:18.912Z,5.20
2019-04-12T07:44:18.905Z,6.00
2019-04-12T07:45:19.101Z,5.50
2019-04-12T07:46:18.881Z,6.00
2019-04-12T07:47:18.869Z,7.90
2019-04-12T07:48:18.866Z,5.20
2019-04-12T07:49:18.851Z,7.10
2019-04-12T07:50:18.841Z,4.90
2019-04-12T07:51:18.828Z,5.10
2019-04-12T07:52:18.822Z,6.70
2019-04-12T07:53:18.815Z,5.50
2019-04-12T07:54:18.798Z,4.80
2019-04-12T07:55:18.789Z,6.40
2019-04-12T07:56:18.781Z,6.20
2019-04-12T07:57:18.766Z,5.80
2019-04-12T07:58:18.757Z,5.20
2019-04-12T07:59:18.752Z,4.90
2019-04-12T08:00:18.740Z,6.30
2019-04-12T08:01:18.727Z,5.60
2019-04-12T08:02:18.718Z,6.80
2019-04-12T08:03:18.706Z,6.10
2019-04-12T08:04:18.694Z,5.20
2019-04-12T08:05:18.690Z,6.30
2019-04-12T08:06:18.677Z,4.70
2019-04-12T08:07:18.665Z,5.40
2019-04-12T08:08:18.656Z,7.30
2019-04-12T08:09:18.643Z,5.50
2019-04-12T08:10:18.642Z,5.70
2019-04-12T08:11:18.624Z,5.80
2019-04-12T08:12:18.633Z,4.60
2019-04-12T08:13:18.606Z,6.20
2019-04-12T08:14:19.468Z,5.30
2019-04-12T08:15:18.589Z,5.90
2019-04-12T08:16:18.579Z,6.60
2019-04-12T08:17:18.563Z,7.10
2019-04-12T08:18:18.557Z,4.20
2019-04-12T08:19:18.543Z,6.80
2019-04-12T08:20:18.543Z,5.00
2019-04-12T08:21:18.525Z,5.30
2019-04-12T08:22:18.512Z,5.30
2019-04-12T08:23:18.504Z,5.70
2019-04-12T08:24:18.494Z,4.80
2019-04-12T08:25:18.481Z,5.20
2019-04-12T08:26:18.474Z,6.40
2019-04-12T08:27:18.466Z,5.70
2019-04-12T08:28:18.454Z,6.80
2019-04-12T08:29:18.448Z,5.80
2019-04-12T08:30:18.445Z,5.90
2019-04-12T08:31:18.419Z,5.90
2019-04-12T08:32:18.414Z,4.60
2019-04-12T08:33:18.405Z,5.90
2019-04-12T08:34:18.394Z,5.10
2019-04-12T08:35:18.383Z,5.40
2019-04-12T08:36:18.374Z,6.30
2019-04-12T08:37:18.359Z,6.10
2019-04-12T08:38:18.352Z,5.80
2019-04-12T08:39:18.345Z,6.80
2019-04-12T08:40:18.334Z,5.80
2019-04-12T08:41:18.321Z,6.60
2019-04-12T08:42:18.309Z,5.10
2019-04-12T08:43:18.308Z,6.10
2019-04-12T08:44:18.296Z,6.20
2019-04-12T08:45:18.284Z,5.20
2019-04-12T08:46:19.135Z,6.50
2019-04-12T08:47:18.261Z,6.50
2019-04-12T08:48:18.251Z,6.40
2019-04-12T08:49:18.253Z,7.00
2019-04-12T08:50:18.258Z,6.60
2019-04-12T08:51:22.604Z,6.80
2019-04-12T08:52:18.226Z,5.60
2019-04-12T08:53:18.230Z,7.00
2019-04-12T08:54:18.237Z,7.10
2019-04-12T08:55:18.219Z,7.30
2019-04-12T08:56:18.173Z,5.60
2019-04-12T08:57:18.199Z,7.40
2019-04-12T08:58:18.159Z,6.70
2019-04-12T08:59:18.235Z,7.40
2019-04-12T09:00:18.129Z,10.00
2019-04-12T09:01:18.135Z,6.60
2019-04-12T09:02:18.111Z,7.20
2019-04-12T09:03:18.174Z,7.10
2019-04-12T09:04:18.137Z,6.20
2019-04-12T09:05:18.122Z,6.90
2019-04-12T09:06:18.067Z,7.50
2019-04-12T09:07:18.191Z,6.20
2019-04-12T09:08:18.057Z,6.60
2019-04-12T09:09:18.227Z,5.90
2019-04-12T09:10:18.097Z,6.60
2019-04-12T09:11:18.129Z,7.40
2019-04-12T09:12:18.016Z,8.90
2019-04-12T09:13:17.999Z,6.70
2019-04-12T09:14:18.072Z,7.40
2019-04-12T09:15:18.058Z,6.10
2019-04-12T09:16:18.061Z,6.40
2019-04-12T09:17:18.036Z,6.20
2019-04-12T09:18:18.009Z,7.30
2019-04-12T09:19:17.984Z,7.50
2019-04-12T09:20:17.944Z,6.40
2019-04-12T09:21:17.991Z,6.20
2019-04-12T09:22:17.945Z,6.00
2019-04-12T09:23:17.900Z,6.50
2019-04-12T09:24:17.998Z,7.00
2019-04-12T09:25:17.894Z,7.20
2019-04-12T09:26:17.902Z,7.90
2019-04-12T09:27:17.917Z,7.80
2019-04-12T09:28:24.592Z,7.30
2019-04-12T09:29:17.961Z,7.50
2019-04-12T09:30:17.925Z,7.10
2019-04-12T09:31:17.876Z,7.90
2019-04-12T09:32:17.816Z,5.60
2019-04-12T09:33:17.832Z,6.70
2019-04-12T09:34:17.796Z,9.40
2019-04-12T09:35:17.790Z,7.00
2019-04-12T09:36:17.778Z,7.00
2019-04-12T09:37:17.766Z,7.60
2019-04-12T09:38:17.757Z,7.30
2019-04-12T09:39:17.749Z,6.60
2019-04-12T09:40:17.739Z,5.50
2019-04-12T09:41:17.726Z,6.00
2019-04-12T09:42:17.725Z,6.60
2019-04-12T09:43:17.718Z,7.70
2019-04-12T09:44:17.703Z,9.40
2019-04-12T09:45:17.692Z,6.70
2019-04-12T09:46:17.679Z,7.10
2019-04-12T09:47:20.528Z,5.60
2019-04-12T09:48:17.667Z,5.70
2019-04-12T09:49:17.652Z,8.00
2019-04-12T09:50:17.644Z,6.60
2019-04-12T09:51:17.629Z,8.70
2019-04-12T09:52:17.624Z,6.00
2019-04-12T09:53:17.612Z,6.40
2019-04-12T09:54:17.605Z,7.50
2019-04-12T09:55:17.596Z,7.40
2019-04-12T09:56:17.585Z,6.70
2019-04-12T09:57:17.608Z,6.40
2019-04-12T09:58:17.566Z,6.30
2019-04-12T09:59:17.558Z,6.30
2019-04-12T10:00:17.578Z,8.10
2019-04-12T10:01:17.538Z,8.50
2019-04-12T10:02:17.532Z,6.30
2019-04-12T10:03:17.523Z,10.40
2019-04-12T10:04:17.538Z,8.40
2019-04-12T10:05:17.502Z,6.20
2019-04-12T10:06:17.490Z,6.60
2019-04-12T10:07:17.484Z,8.00
2019-04-12T10:08:17.472Z,6.40
2019-04-12T10:09:27.487Z,7.40
2019-04-12T10:10:17.450Z,7.10
2019-04-12T10:11:17.459Z,6.30
2019-04-12T10:12:19.582Z,6.60
2019-04-12T10:13:17.423Z,7.80
2019-04-12T10:14:17.419Z,7.10
2019-04-12T10:15:17.410Z,6.30
2019-04-12T10:16:17.393Z,7.50
2019-04-12T10:17:17.387Z,7.90
2019-04-12T10:18:17.379Z,8.20
2019-04-12T10:19:17.371Z,7.60
2019-04-12T10:20:17.361Z,6.80
2019-04-12T10:21:17.350Z,7.80
2019-04-12T10:22:17.338Z,6.30
2019-04-12T10:23:17.332Z,6.40
2019-04-12T10:24:18.664Z,8.20
2019-04-12T10:25:17.313Z,7.50
2019-04-12T10:26:17.305Z,6.90
2019-04-12T10:27:17.292Z,7.00
2019-04-12T10:28:20.013Z,8.80
2019-04-12T10:29:17.275Z,8.00
2019-04-12T10:30:17.265Z,7.90
2019-04-12T10:31:17.257Z,11.90
2019-04-12T10:32:17.309Z,7.10
2019-04-12T10:33:17.239Z,9.20
2019-04-12T10:34:17.234Z,7.80
2019-04-12T10:35:17.225Z,7.30
2019-04-12T10:36:17.214Z,7.90
2019-04-12T10:37:17.204Z,7.80
2019-04-12T10:38:17.206Z,7.90
2019-04-12T10:39:17.184Z,6.40
2019-04-12T10:40:17.179Z,7.40
2019-04-12T10:41:17.170Z,7.50
2019-04-12T10:42:17.161Z,7.90
2019-04-12T10:43:17.151Z,8.90
2019-04-12T10:44:17.145Z,6.60
2019-04-12T10:45:17.135Z,6.30
2019-04-12T10:46:17.125Z,7.50
2019-04-12T10:47:17.115Z,7.10
2019-04-12T10:48:17.107Z,6.30
2019-04-12T10:49:17.098Z,6.70
2019-04-12T10:50:17.089Z,6.50
2019-04-12T10:51:17.079Z,6.40
2019-04-12T10:52:17.072Z,7.10
2019-04-12T10:53:17.064Z,7.70
2019-04-12T10:54:17.056Z,7.00
2019-04-12T10:55:17.049Z,8.30
2019-04-12T10:56:17.036Z,8.30
2019-04-12T10:57:17.025Z,7.90
2019-04-12T10:58:17.020Z,7.20
2019-04-12T10:59:17.022Z,6.20
2019-04-12T11:00:17.008Z,9.70
2019-04-12T11:01:16.994Z,7.70
2019-04-12T11:02:16.984Z,7.30
2019-04-12T11:03:16.981Z,6.50
2019-04-12T11:04:16.997Z,7.40
2019-04-12T11:05:16.962Z,7.80
2019-04-12T11:06:29.493Z,7.60
2019-04-12T11:07:16.943Z,7.00
2019-04-12T11:08:16.938Z,7.60
2019-04-12T11:09:16.926Z,6.40
2019-04-12T11:10:16.917Z,7.40
2019-04-12T11:11:17.073Z,6.90
2019-04-12T11:12:16.904Z,6.90
2019-04-12T11:13:16.893Z,6.90
2019-04-12T11:14:16.882Z,8.10
2019-04-12T11:15:21.497Z,7.60
2019-04-12T11:16:16.875Z,7.10
2019-04-12T11:17:16.861Z,8.70
2019-04-12T11:18:16.855Z,8.90
2019-04-12T11:19:16.847Z,8.00
2019-04-12T11:20:16.836Z,7.60
2019-04-12T11:21:16.832Z,6.80
2019-04-12T11:22:16.820Z,6.90
2019-04-12T11:23:16.816Z,7.00
2019-04-12T11:24:16.808Z,7.10
2019-04-12T11:25:28.417Z,6.40
2019-04-12T11:26:16.792Z,7.80
2019-04-12T11:27:16.783Z,8.00
2019-04-12T11:28:16.777Z,7.20
2019-04-12T11:29:17.560Z,7.80
2019-04-12T11:30:16.762Z,7.80
2019-04-12T11:31:16.755Z,7.60
2019-04-12T11:32:16.744Z,6.60
2019-04-12T11:33:16.738Z,7.50
2019-04-12T11:34:16.733Z,8.10
2019-04-12T11:35:16.731Z,8.70
2019-04-12T11:36:16.719Z,7.90
2019-04-12T11:37:16.706Z,7.90
2019-04-12T11:38:16.698Z,7.20
2019-04-12T11:39:16.697Z,6.30
2019-04-12T11:40:16.694Z,8.20
2019-04-12T11:41:16.681Z,7.40
2019-04-12T11:42:16.669Z,9.00
2019-04-12T11:43:16.663Z,9.20
2019-04-12T11:44:16.656Z,7.40
2019-04-12T11:45:16.652Z,8.50
2019-04-12T11:46:16.646Z,9.70
2019-04-12T11:47:16.636Z,8.60
2019-04-12T11:48:16.634Z,7.30
2019-04-12T11:49:16.625Z,8.20
2019-04-12T11:50:16.625Z,8.30
2019-04-12T11:51:16.614Z,8.50
2019-04-12T11:52:16.606Z,7.50
2019-04-12T11:53:16.599Z,6.90
2019-04-12T11:54:16.591Z,7.60
2019-04-12T11:55:16.591Z,8.30
2019-04-12T11:56:16.581Z,8.20
2019-04-12T11:57:16.574Z,7.60
2019-04-12T11:58:16.569Z,7.90
2019-04-12T11:59:28.793Z,9.40
2019-04-12T12:00:16.556Z,9.10
2019-04-12T12:01:16.545Z,9.00
2019-04-12T12:02:16.539Z,8.10
2019-04-12T12:03:16.536Z,8.20
2019-04-12T12:04:16.531Z,8.50
2019-04-12T12:05:16.522Z,8.20
2019-04-12T12:06:16.514Z,8.30
2019-04-12T12:07:16.507Z,8.40
2019-04-12T12:08:16.505Z,6.20
2019-04-12T12:09:16.499Z,7.60
2019-04-12T12:10:16.493Z,8.70
2019-04-12T12:11:16.487Z,8.10
2019-04-12T12:12:16.478Z,7.60
2019-04-12T12:13:16.476Z,7.50
2019-04-12T12:14:16.469Z,10.60
2019-04-12T12:15:16.466Z,8.60
2019-04-12T12:16:16.455Z,8.30
2019-04-12T12:17:16.445Z,8.40
2019-04-12T12:18:16.438Z,9.10
2019-04-12T12:19:16.437Z,8.50
2019-04-12T12:20:16.430Z,7.80
2019-04-12T12:21:16.422Z,8.50
2019-04-12T12:22:16.545Z,8.10
2019-04-12T12:23:16.405Z,11.10
2019-04-12T12:24:16.402Z,10.30
2019-04-12T12:25:16.397Z,9.60
2019-04-12T12:26:16.393Z,8.90
2019-04-12T12:27:16.381Z,8.50
2019-04-12T12:28:16.376Z,8.10
2019-04-12T12:29:16.366Z,9.30
2019-04-12T12:30:16.363Z,8.90
2019-04-12T12:31:16.353Z,9.40
2019-04-12T12:32:16.350Z,10.10
2019-04-12T12:33:16.345Z,10.20
2019-04-12T12:34:16.335Z,7.40
2019-04-12T12:35:16.329Z,9.50
2019-04-12T12:36:16.322Z,9.40
2019-04-12T12:37:16.315Z,7.70
2019-04-12T12:41:41.888Z,7.50
2019-04-12T12:42:41.866Z,8.80
2019-04-12T12:44:46.350Z,9.40
2019-04-12T12:45:46.331Z,8.70
2019-04-12T12:47:50.279Z,8.10
2019-04-12T12:48:50.270Z,8.40
2019-04-12T12:50:43.155Z,8.70
2019-04-12T12:51:43.135Z,7.60
2019-04-12T12:53:47.090Z,8.80
2019-04-12T12:54:47.077Z,8.30
2019-04-12T12:56:51.038Z,7.60
2019-04-12T12:57:51.016Z,9.20
2019-04-12T12:59:55.322Z,9.20
2019-04-12T13:00:54.964Z,9.50
2019-04-12T13:02:58.953Z,8.70
2019-04-12T13:03:58.923Z,11.20
2019-04-12T13:06:02.884Z,8.80
2019-04-12T13:07:02.866Z,10.00
2019-04-12T13:09:06.830Z,8.00
2019-04-12T13:10:06.810Z,9.70
2019-04-12T13:12:10.827Z,10.60
2019-04-12T13:13:10.750Z,9.20
2019-04-12T13:15:14.710Z,9.30
2019-04-12T13:16:14.694Z,8.60
2019-04-12T13:18:18.659Z,8.70
2019-04-12T13:19:18.639Z,9.80
2019-04-12T13:21:22.612Z,11.00
2019-04-12T13:22:22.582Z,8.70
2019-04-12T13:24:26.549Z,8.60
2019-04-12T13:25:26.542Z,10.60
2019-04-12T13:27:30.484Z,9.00
2019-04-12T13:28:30.473Z,12.10
2019-04-12T13:30:23.358Z,11.60
2019-04-12T13:31:23.353Z,9.90
2019-04-12T13:33:28.310Z,8.70
2019-04-12T13:34:28.290Z,10.90
2019-04-12T13:36:32.244Z,9.30
2019-04-12T13:37:32.231Z,8.50
2019-04-12T13:39:36.244Z,9.30
2019-04-12T13:40:36.178Z,7.90
2019-04-12T13:42:40.129Z,9.50